sensor_id;sensor_type;location;lat;lon;timestamp;P1;durP1;ratioP1;P2;durP2;ratioP2
62736;SDS011;48787;46.494;-1.782;2022-07-22T00:01:38;3.28;;;2.28;;
62736;SDS011;48787;46.494;-1.782;2022-07-22T00:04:04;3.30;;;2.70;;
62736;SDS011;48787;46.494;-1.782;2022-07-22T00:06:30;2.42;;;2.20;;
62736;SDS011;48787;46.494;-1.782;2022-07-22T00:08:56;4.22;;;2.40;;
62736;SDS011;48787;46.494;-1.782;2022-07-22T00:11:22;2.90;;;2.40;;
62736;SDS011;48787;46.494;-1.782;2022-07-22T00:13:48;3.15;;;2.33;;
62736;SDS011;48787;46.494;-1.782;2022-07-22T00:16:14;3.53;;;2.38;;
62736;SDS011;48787;46.494;-1.782;2022-07-22T00:18:40;2.90;;;2.25;;
62736;SDS011;48787;46.494;-1.782;2022-07-22T00:21:06;2.45;;;2.13;;
62736;SDS011;48787;46.494;-1.782;2022-07-22T00:23:32;2.95;;;2.20;;
62736;SDS011;48787;46.494;-1.782;2022-07-22T00:25:59;3.35;;;2.10;;
62736;SDS011;48787;46.494;-1.782;2022-07-22T00:28:25;2.78;;;2.20;;
62736;SDS011;48787;46.494;-1.782;2022-07-22T00:30:51;4.43;;;2.35;;
62736;SDS011;48787;46.494;-1.782;2022-07-22T00:33:17;2.47;;;2.20;;
62736;SDS011;48787;46.494;-1.782;2022-07-22T00:35:43;3.25;;;2.10;;
62736;SDS011;48787;46.494;-1.782;2022-07-22T00:38:09;3.40;;;2.20;;
62736;SDS011;48787;46.494;-1.782;2022-07-22T00:40:35;2.45;;;1.90;;
62736;SDS011;48787;46.494;-1.782;2022-07-22T00:43:01;2.00;;;1.67;;
62736;SDS011;48787;46.494;-1.782;2022-07-22T00:45:27;3.20;;;2.05;;
62736;SDS011;48787;46.494;-1.782;2022-07-22T00:47:53;2.60;;;2.00;;
62736;SDS011;48787;46.494;-1.782;2022-07-22T00:50:19;3.17;;;1.83;;
62736;SDS011;48787;46.494;-1.782;2022-07-22T00:52:46;3.33;;;1.90;;
62736;SDS011;48787;46.494;-1.782;2022-07-22T00:55:13;2.40;;;1.98;;
62736;SDS011;48787;46.494;-1.782;2022-07-22T00:57:39;3.33;;;2.22;;
62736;SDS011;48787;46.494;-1.782;2022-07-22T01:00:06;2.58;;;2.03;;
62736;SDS011;48787;46.494;-1.782;2022-07-22T01:02:32;2.58;;;1.70;;
62736;SDS011;48787;46.494;-1.782;2022-07-22T01:04:58;2.58;;;2.00;;
62736;SDS011;48787;46.494;-1.782;2022-07-22T01:07:24;2.40;;;1.77;;
62736;SDS011;48787;46.494;-1.782;2022-07-22T01:09:50;1.92;;;1.70;;
62736;SDS011;48787;46.494;-1.782;2022-07-22T01:12:16;2.75;;;1.95;;
62736;SDS011;48787;46.494;-1.782;2022-07-22T01:14:42;2.60;;;2.08;;
62736;SDS011;48787;46.494;-1.782;2022-07-22T01:17:08;2.67;;;2.13;;
62736;SDS011;48787;46.494;-1.782;2022-07-22T01:19:38;2.30;;;1.80;;
62736;SDS011;48787;46.494;-1.782;2022-07-22T01:22:04;2.17;;;1.75;;
62736;SDS011;48787;46.494;-1.782;2022-07-22T01:24:31;2.50;;;1.77;;
62736;SDS011;48787;46.494;-1.782;2022-07-22T01:26:57;3.10;;;2.00;;
62736;SDS011;48787;46.494;-1.782;2022-07-22T01:29:23;2.00;;;1.80;;
62736;SDS011;48787;46.494;-1.782;2022-07-22T01:31:49;2.63;;;1.88;;
62736;SDS011;48787;46.494;-1.782;2022-07-22T01:34:15;2.65;;;1.90;;
62736;SDS011;48787;46.494;-1.782;2022-07-22T01:36:41;4.50;;;1.90;;
62736;SDS011;48787;46.494;-1.782;2022-07-22T01:39:07;2.90;;;1.73;;
62736;SDS011;48787;46.494;-1.782;2022-07-22T01:41:34;3.28;;;1.85;;
62736;SDS011;48787;46.494;-1.782;2022-07-22T01:44:00;2.72;;;1.90;;
62736;SDS011;48787;46.494;-1.782;2022-07-22T01:46:26;1.88;;;1.60;;
62736;SDS011;48787;46.494;-1.782;2022-07-22T01:48:52;1.83;;;1.60;;
62736;SDS011;48787;46.494;-1.782;2022-07-22T01:51:18;2.25;;;1.70;;
62736;SDS011;48787;46.494;-1.782;2022-07-22T01:53:44;2.13;;;1.48;;
62736;SDS011;48787;46.494;-1.782;2022-07-22T01:56:11;2.03;;;1.80;;
62736;SDS011;48787;46.494;-1.782;2022-07-22T01:58:37;2.15;;;1.95;;
62736;SDS011;48787;46.494;-1.782;2022-07-22T02:01:03;2.38;;;1.50;;
62736;SDS011;48787;46.494;-1.782;2022-07-22T02:03:29;3.97;;;1.98;;
62736;SDS011;48787;46.494;-1.782;2022-07-22T02:05:55;4.13;;;1.70;;
62736;SDS011;48787;46.494;-1.782;2022-07-22T02:08:21;2.30;;;1.75;;
62736;SDS011;48787;46.494;-1.782;2022-07-22T02:10:47;2.53;;;1.65;;
62736;SDS011;48787;46.494;-1.782;2022-07-22T02:13:14;1.98;;;1.73;;
62736;SDS011;48787;46.494;-1.782;2022-07-22T02:15:40;2.95;;;1.80;;
62736;SDS011;48787;46.494;-1.782;2022-07-22T02:18:13;2.33;;;1.88;;
62736;SDS011;48787;46.494;-1.782;2022-07-22T02:20:39;2.67;;;1.80;;
62736;SDS011;48787;46.494;-1.782;2022-07-22T02:23:05;2.65;;;1.73;;
62736;SDS011;48787;46.494;-1.782;2022-07-22T02:25:32;2.75;;;1.50;;
62736;SDS011;48787;46.494;-1.782;2022-07-22T02:27:58;1.85;;;1.50;;
62736;SDS011;48787;46.494;-1.782;2022-07-22T02:30:24;1.95;;;1.75;;
62736;SDS011;48787;46.494;-1.782;2022-07-22T02:32:50;2.92;;;1.50;;
62736;SDS011;48787;46.494;-1.782;2022-07-22T02:35:17;1.95;;;1.63;;
62736;SDS011;48787;46.494;-1.782;2022-07-22T02:37:43;1.70;;;1.60;;
62736;SDS011;48787;46.494;-1.782;2022-07-22T02:40:09;1.63;;;1.50;;
62736;SDS011;48787;46.494;-1.782;2022-07-22T02:42:35;3.08;;;1.83;;
62736;SDS011;48787;46.494;-1.782;2022-07-22T02:45:01;1.80;;;1.70;;
62736;SDS011;48787;46.494;-1.782;2022-07-22T02:47:28;1.67;;;1.40;;
62736;SDS011;48787;46.494;-1.782;2022-07-22T02:49:54;2.22;;;1.70;;
62736;SDS011;48787;46.494;-1.782;2022-07-22T02:52:20;1.80;;;1.30;;
62736;SDS011;48787;46.494;-1.782;2022-07-22T02:54:46;1.75;;;1.40;;
62736;SDS011;48787;46.494;-1.782;2022-07-22T02:57:12;2.45;;;1.30;;
62736;SDS011;48787;46.494;-1.782;2022-07-22T02:59:38;2.95;;;1.45;;
62736;SDS011;48787;46.494;-1.782;2022-07-22T03:02:04;1.58;;;1.27;;
62736;SDS011;48787;46.494;-1.782;2022-07-22T03:04:30;1.58;;;1.42;;
62736;SDS011;48787;46.494;-1.782;2022-07-22T03:06:56;2.22;;;1.65;;
62736;SDS011;48787;46.494;-1.782;2022-07-22T03:09:22;1.50;;;1.40;;
62736;SDS011;48787;46.494;-1.782;2022-07-22T03:11:48;1.50;;;1.40;;
62736;SDS011;48787;46.494;-1.782;2022-07-22T03:14:14;1.70;;;1.58;;
62736;SDS011;48787;46.494;-1.782;2022-07-22T03:16:42;1.50;;;1.27;;
62736;SDS011;48787;46.494;-1.782;2022-07-22T03:19:08;1.92;;;1.30;;
62736;SDS011;48787;46.494;-1.782;2022-07-22T03:21:34;2.03;;;1.40;;
62736;SDS011;48787;46.494;-1.782;2022-07-22T03:24:00;2.03;;;1.60;;
62736;SDS011;48787;46.494;-1.782;2022-07-22T03:26:26;1.77;;;1.27;;
62736;SDS011;48787;46.494;-1.782;2022-07-22T03:28:52;2.33;;;1.63;;
62736;SDS011;48787;46.494;-1.782;2022-07-22T03:31:18;2.35;;;1.27;;
62736;SDS011;48787;46.494;-1.782;2022-07-22T03:33:44;2.45;;;1.20;;
62736;SDS011;48787;46.494;-1.782;2022-07-22T03:36:10;2.28;;;1.55;;
62736;SDS011;48787;46.494;-1.782;2022-07-22T03:38:37;2.00;;;1.40;;
62736;SDS011;48787;46.494;-1.782;2022-07-22T03:41:03;1.98;;;1.50;;
62736;SDS011;48787;46.494;-1.782;2022-07-22T03:43:29;1.10;;;1.00;;
62736;SDS011;48787;46.494;-1.782;2022-07-22T03:45:55;1.33;;;1.23;;
62736;SDS011;48787;46.494;-1.782;2022-07-22T03:48:21;1.85;;;1.30;;
62736;SDS011;48787;46.494;-1.782;2022-07-22T03:50:47;1.40;;;1.30;;
62736;SDS011;48787;46.494;-1.782;2022-07-22T03:53:16;1.95;;;1.30;;
62736;SDS011;48787;46.494;-1.782;2022-07-22T03:55:42;2.38;;;1.50;;
62736;SDS011;48787;46.494;-1.782;2022-07-22T03:58:09;2.03;;;1.40;;
62736;SDS011;48787;46.494;-1.782;2022-07-22T04:00:35;1.25;;;1.10;;
62736;SDS011;48787;46.494;-1.782;2022-07-22T04:03:01;3.22;;;1.60;;
62736;SDS011;48787;46.494;-1.782;2022-07-22T04:05:27;1.52;;;1.30;;
62736;SDS011;48787;46.494;-1.782;2022-07-22T04:07:54;1.45;;;1.20;;
62736;SDS011;48787;46.494;-1.782;2022-07-22T04:10:20;1.85;;;1.30;;
62736;SDS011;48787;46.494;-1.782;2022-07-22T04:12:46;1.48;;;1.08;;
62736;SDS011;48787;46.494;-1.782;2022-07-22T04:15:12;1.90;;;1.30;;
62736;SDS011;48787;46.494;-1.782;2022-07-22T04:17:38;1.23;;;1.08;;
62736;SDS011;48787;46.494;-1.782;2022-07-22T04:20:04;1.65;;;1.40;;
62736;SDS011;48787;46.494;-1.782;2022-07-22T04:22:31;1.92;;;1.50;;
62736;SDS011;48787;46.494;-1.782;2022-07-22T04:24:57;2.35;;;1.25;;
62736;SDS011;48787;46.494;-1.782;2022-07-22T04:27:23;2.80;;;1.48;;
62736;SDS011;48787;46.494;-1.782;2022-07-22T04:29:49;1.67;;;1.05;;
62736;SDS011;48787;46.494;-1.782;2022-07-22T04:32:15;1.35;;;1.13;;
62736;SDS011;48787;46.494;-1.782;2022-07-22T04:34:41;2.47;;;1.35;;
62736;SDS011;48787;46.494;-1.782;2022-07-22T04:37:08;3.20;;;1.60;;
62736;SDS011;48787;46.494;-1.782;2022-07-22T04:39:34;1.38;;;1.20;;
62736;SDS011;48787;46.494;-1.782;2022-07-22T04:42:00;2.22;;;1.40;;
62736;SDS011;48787;46.494;-1.782;2022-07-22T04:44:26;1.40;;;1.23;;
62736;SDS011;48787;46.494;-1.782;2022-07-22T04:46:52;1.60;;;1.40;;
62736;SDS011;48787;46.494;-1.782;2022-07-22T04:49:18;2.33;;;1.10;;
62736;SDS011;48787;46.494;-1.782;2022-07-22T04:51:44;2.28;;;1.20;;
62736;SDS011;48787;46.494;-1.782;2022-07-22T04:54:10;1.92;;;1.20;;
62736;SDS011;48787;46.494;-1.782;2022-07-22T04:56:36;1.58;;;1.10;;
62736;SDS011;48787;46.494;-1.782;2022-07-22T04:59:02;1.73;;;1.10;;
62736;SDS011;48787;46.494;-1.782;2022-07-22T05:01:29;1.23;;;1.13;;
62736;SDS011;48787;46.494;-1.782;2022-07-22T05:03:55;1.45;;;1.25;;
62736;SDS011;48787;46.494;-1.782;2022-07-22T05:06:21;2.83;;;1.85;;
62736;SDS011;48787;46.494;-1.782;2022-07-22T05:08:47;2.40;;;1.48;;
62736;SDS011;48787;46.494;-1.782;2022-07-22T05:11:13;1.50;;;1.40;;
62736;SDS011;48787;46.494;-1.782;2022-07-22T05:13:39;2.00;;;1.38;;
62736;SDS011;48787;46.494;-1.782;2022-07-22T05:16:05;1.70;;;1.30;;
62736;SDS011;48787;46.494;-1.782;2022-07-22T05:18:32;1.23;;;1.10;;
62736;SDS011;48787;46.494;-1.782;2022-07-22T05:20:59;1.92;;;1.40;;
62736;SDS011;48787;46.494;-1.782;2022-07-22T05:23:25;2.55;;;1.50;;
62736;SDS011;48787;46.494;-1.782;2022-07-22T05:25:51;1.30;;;1.20;;
62736;SDS011;48787;46.494;-1.782;2022-07-22T05:28:17;1.50;;;1.13;;
62736;SDS011;48787;46.494;-1.782;2022-07-22T05:30:44;1.40;;;1.30;;
62736;SDS011;48787;46.494;-1.782;2022-07-22T05:33:10;1.50;;;1.40;;
62736;SDS011;48787;46.494;-1.782;2022-07-22T05:35:36;1.50;;;1.40;;
62736;SDS011;48787;46.494;-1.782;2022-07-22T05:38:02;3.05;;;1.30;;
62736;SDS011;48787;46.494;-1.782;2022-07-22T05:40:30;1.40;;;1.20;;
62736;SDS011;48787;46.494;-1.782;2022-07-22T05:42:56;2.45;;;1.30;;
62736;SDS011;48787;46.494;-1.782;2022-07-22T05:45:22;1.55;;;1.13;;
62736;SDS011;48787;46.494;-1.782;2022-07-22T05:47:48;2.70;;;1.35;;
62736;SDS011;48787;46.494;-1.782;2022-07-22T05:50:14;1.83;;;1.30;;
62736;SDS011;48787;46.494;-1.782;2022-07-22T05:52:40;1.17;;;1.10;;
62736;SDS011;48787;46.494;-1.782;2022-07-22T05:55:07;3.30;;;1.20;;
62736;SDS011;48787;46.494;-1.782;2022-07-22T05:57:33;2.28;;;1.30;;
62736;SDS011;48787;46.494;-1.782;2022-07-22T05:59:59;1.42;;;1.20;;
62736;SDS011;48787;46.494;-1.782;2022-07-22T06:02:25;1.50;;;1.40;;
62736;SDS011;48787;46.494;-1.782;2022-07-22T06:04:51;1.40;;;1.30;;
62736;SDS011;48787;46.494;-1.782;2022-07-22T06:07:18;1.30;;;1.17;;
62736;SDS011;48787;46.494;-1.782;2022-07-22T06:09:44;2.05;;;1.17;;
62736;SDS011;48787;46.494;-1.782;2022-07-22T06:12:10;1.85;;;1.10;;
62736;SDS011;48787;46.494;-1.782;2022-07-22T06:14:36;3.45;;;1.40;;
62736;SDS011;48787;46.494;-1.782;2022-07-22T06:17:02;1.42;;;1.10;;
62736;SDS011;48787;46.494;-1.782;2022-07-22T06:19:28;2.13;;;1.42;;
62736;SDS011;48787;46.494;-1.782;2022-07-22T06:21:55;1.35;;;1.25;;
62736;SDS011;48787;46.494;-1.782;2022-07-22T06:24:21;1.67;;;1.13;;
62736;SDS011;48787;46.494;-1.782;2022-07-22T06:26:47;1.73;;;1.30;;
62736;SDS011;48787;46.494;-1.782;2022-07-22T06:29:14;1.75;;;1.40;;
62736;SDS011;48787;46.494;-1.782;2022-07-22T06:31:40;1.70;;;1.30;;
62736;SDS011;48787;46.494;-1.782;2022-07-22T06:34:06;1.45;;;1.35;;
62736;SDS011;48787;46.494;-1.782;2022-07-22T06:36:32;3.85;;;1.10;;
62736;SDS011;48787;46.494;-1.782;2022-07-22T06:38:58;1.73;;;1.42;;
62736;SDS011;48787;46.494;-1.782;2022-07-22T06:41:25;2.33;;;1.30;;
62736;SDS011;48787;46.494;-1.782;2022-07-22T06:43:51;2.60;;;1.23;;
62736;SDS011;48787;46.494;-1.782;2022-07-22T06:46:17;1.40;;;1.23;;
62736;SDS011;48787;46.494;-1.782;2022-07-22T06:48:43;1.92;;;1.40;;
62736;SDS011;48787;46.494;-1.782;2022-07-22T06:51:10;1.40;;;1.25;;
62736;SDS011;48787;46.494;-1.782;2022-07-22T06:53:36;1.52;;;1.40;;
62736;SDS011;48787;46.494;-1.782;2022-07-22T06:56:02;1.50;;;1.40;;
62736;SDS011;48787;46.494;-1.782;2022-07-22T06:58:29;1.63;;;1.27;;
62736;SDS011;48787;46.494;-1.782;2022-07-22T07:00:55;3.15;;;1.48;;
62736;SDS011;48787;46.494;-1.782;2022-07-22T07:03:21;1.40;;;1.30;;
62736;SDS011;48787;46.494;-1.782;2022-07-22T07:05:47;1.30;;;1.20;;
62736;SDS011;48787;46.494;-1.782;2022-07-22T07:08:14;1.38;;;1.27;;
62736;SDS011;48787;46.494;-1.782;2022-07-22T07:10:40;1.50;;;1.40;;
62736;SDS011;48787;46.494;-1.782;2022-07-22T07:13:06;1.63;;;1.40;;
62736;SDS011;48787;46.494;-1.782;2022-07-22T07:15:32;1.75;;;1.35;;
62736;SDS011;48787;46.494;-1.782;2022-07-22T07:17:58;2.20;;;1.30;;
62736;SDS011;48787;46.494;-1.782;2022-07-22T07:20:24;2.35;;;1.50;;
62736;SDS011;48787;46.494;-1.782;2022-07-22T07:22:50;3.80;;;1.63;;
62736;SDS011;48787;46.494;-1.782;2022-07-22T07:25:16;1.42;;;1.30;;
62736;SDS011;48787;46.494;-1.782;2022-07-22T07:27:42;1.48;;;1.38;;
62736;SDS011;48787;46.494;-1.782;2022-07-22T07:30:09;1.50;;;1.23;;
62736;SDS011;48787;46.494;-1.782;2022-07-22T07:32:35;1.60;;;1.33;;
62736;SDS011;48787;46.494;-1.782;2022-07-22T07:35:02;1.60;;;1.50;;
62736;SDS011;48787;46.494;-1.782;2022-07-22T07:37:28;2.20;;;1.52;;
62736;SDS011;48787;46.494;-1.782;2022-07-22T07:39:54;2.60;;;1.35;;
62736;SDS011;48787;46.494;-1.782;2022-07-22T07:42:20;1.65;;;1.48;;
62736;SDS011;48787;46.494;-1.782;2022-07-22T07:44:47;1.67;;;1.45;;
62736;SDS011;48787;46.494;-1.782;2022-07-22T07:47:13;1.83;;;1.30;;
62736;SDS011;48787;46.494;-1.782;2022-07-22T07:49:43;1.55;;;1.30;;
62736;SDS011;48787;46.494;-1.782;2022-07-22T07:52:09;2.33;;;1.50;;
62736;SDS011;48787;46.494;-1.782;2022-07-22T07:54:35;2.45;;;1.50;;
62736;SDS011;48787;46.494;-1.782;2022-07-22T07:57:01;3.30;;;1.50;;
62736;SDS011;48787;46.494;-1.782;2022-07-22T07:59:27;5.65;;;1.40;;
62736;SDS011;48787;46.494;-1.782;2022-07-22T08:01:53;1.90;;;1.42;;
62736;SDS011;48787;46.494;-1.782;2022-07-22T08:04:19;2.65;;;1.38;;
62736;SDS011;48787;46.494;-1.782;2022-07-22T08:06:45;2.65;;;1.42;;
62736;SDS011;48787;46.494;-1.782;2022-07-22T08:09:11;1.98;;;1.40;;
62736;SDS011;48787;46.494;-1.782;2022-07-22T08:11:37;2.47;;;1.50;;
62736;SDS011;48787;46.494;-1.782;2022-07-22T08:14:03;3.08;;;1.33;;
62736;SDS011;48787;46.494;-1.782;2022-07-22T08:16:29;2.13;;;1.65;;
62736;SDS011;48787;46.494;-1.782;2022-07-22T08:18:56;2.45;;;1.63;;
62736;SDS011;48787;46.494;-1.782;2022-07-22T08:21:22;2.38;;;1.40;;
62736;SDS011;48787;46.494;-1.782;2022-07-22T08:23:48;3.85;;;1.92;;
62736;SDS011;48787;46.494;-1.782;2022-07-22T08:26:14;5.72;;;1.83;;
62736;SDS011;48787;46.494;-1.782;2022-07-22T08:28:40;3.05;;;1.42;;
62736;SDS011;48787;46.494;-1.782;2022-07-22T08:31:06;3.00;;;1.58;;
62736;SDS011;48787;46.494;-1.782;2022-07-22T08:33:32;1.42;;;1.20;;
62736;SDS011;48787;46.494;-1.782;2022-07-22T08:35:58;3.20;;;1.40;;
62736;SDS011;48787;46.494;-1.782;2022-07-22T08:38:24;3.28;;;1.60;;
62736;SDS011;48787;46.494;-1.782;2022-07-22T08:40:50;3.97;;;1.70;;
62736;SDS011;48787;46.494;-1.782;2022-07-22T08:43:19;5.88;;;1.83;;
62736;SDS011;48787;46.494;-1.782;2022-07-22T08:45:45;2.20;;;1.55;;
62736;SDS011;48787;46.494;-1.782;2022-07-22T08:48:13;3.80;;;1.70;;
62736;SDS011;48787;46.494;-1.782;2022-07-22T08:50:39;2.50;;;1.60;;
62736;SDS011;48787;46.494;-1.782;2022-07-22T08:53:08;2.95;;;1.70;;
62736;SDS011;48787;46.494;-1.782;2022-07-22T08:55:40;1.77;;;1.38;;
62736;SDS011;48787;46.494;-1.782;2022-07-22T08:58:06;2.55;;;1.58;;
62736;SDS011;48787;46.494;-1.782;2022-07-22T09:00:32;2.30;;;1.60;;
62736;SDS011;48787;46.494;-1.782;2022-07-22T09:02:58;3.67;;;1.80;;
62736;SDS011;48787;46.494;-1.782;2022-07-22T09:05:24;3.05;;;1.33;;
62736;SDS011;48787;46.494;-1.782;2022-07-22T09:07:58;3.80;;;1.80;;
62736;SDS011;48787;46.494;-1.782;2022-07-22T09:10:24;3.10;;;1.55;;
62736;SDS011;48787;46.494;-1.782;2022-07-22T09:12:56;3.42;;;1.60;;
62736;SDS011;48787;46.494;-1.782;2022-07-22T09:15:30;2.30;;;1.73;;
62736;SDS011;48787;46.494;-1.782;2022-07-22T09:17:57;3.00;;;1.60;;
62736;SDS011;48787;46.494;-1.782;2022-07-22T09:20:24;3.05;;;1.55;;
62736;SDS011;48787;46.494;-1.782;2022-07-22T09:22:50;2.38;;;1.45;;
62736;SDS011;48787;46.494;-1.782;2022-07-22T09:25:29;4.40;;;1.73;;
62736;SDS011;48787;46.494;-1.782;2022-07-22T09:28:18;3.35;;;1.33;;
62736;SDS011;48787;46.494;-1.782;2022-07-22T09:33:11;2.63;;;1.75;;
62736;SDS011;48787;46.494;-1.782;2022-07-22T09:35:38;2.92;;;1.45;;
62736;SDS011;48787;46.494;-1.782;2022-07-22T09:38:05;1.50;;;1.40;;
62736;SDS011;48787;46.494;-1.782;2022-07-22T09:40:35;2.30;;;1.58;;
62736;SDS011;48787;46.494;-1.782;2022-07-22T09:43:03;3.63;;;1.58;;
62736;SDS011;48787;46.494;-1.782;2022-07-22T09:45:30;2.55;;;1.75;;
62736;SDS011;48787;46.494;-1.782;2022-07-22T09:47:57;2.13;;;1.60;;
62736;SDS011;48787;46.494;-1.782;2022-07-22T09:50:27;2.05;;;1.30;;
62736;SDS011;48787;46.494;-1.782;2022-07-22T09:52:54;2.42;;;1.55;;
62736;SDS011;48787;46.494;-1.782;2022-07-22T09:55:21;3.97;;;1.50;;
62736;SDS011;48787;46.494;-1.782;2022-07-22T09:57:48;4.18;;;1.75;;
62736;SDS011;48787;46.494;-1.782;2022-07-22T10:00:16;2.88;;;1.40;;
62736;SDS011;48787;46.494;-1.782;2022-07-22T10:02:49;2.70;;;1.65;;
62736;SDS011;48787;46.494;-1.782;2022-07-22T10:05:16;3.65;;;1.75;;
62736;SDS011;48787;46.494;-1.782;2022-07-22T10:07:43;3.10;;;1.50;;
62736;SDS011;48787;46.494;-1.782;2022-07-22T10:10:10;3.90;;;1.60;;
62736;SDS011;48787;46.494;-1.782;2022-07-22T10:12:37;7.65;;;1.90;;
62736;SDS011;48787;46.494;-1.782;2022-07-22T10:15:04;4.88;;;1.90;;
62736;SDS011;48787;46.494;-1.782;2022-07-22T10:17:31;4.70;;;2.40;;
62736;SDS011;48787;46.494;-1.782;2022-07-22T10:19:57;3.35;;;2.10;;
62736;SDS011;48787;46.494;-1.782;2022-07-22T10:25:08;5.28;;;2.40;;
62736;SDS011;48787;46.494;-1.782;2022-07-22T10:30:10;6.07;;;2.63;;
62736;SDS011;48787;46.494;-1.782;2022-07-22T10:32:36;5.25;;;2.40;;
62736;SDS011;48787;46.494;-1.782;2022-07-22T10:40:09;4.75;;;2.83;;
62736;SDS011;48787;46.494;-1.782;2022-07-22T10:45:20;5.55;;;2.80;;
62736;SDS011;48787;46.494;-1.782;2022-07-22T10:47:59;6.03;;;2.38;;
62736;SDS011;48787;46.494;-1.782;2022-07-22T10:53:04;4.22;;;2.55;;
62736;SDS011;48787;46.494;-1.782;2022-07-22T10:55:31;3.70;;;2.47;;
62736;SDS011;48787;46.494;-1.782;2022-07-22T10:57:57;4.00;;;2.55;;
62736;SDS011;48787;46.494;-1.782;2022-07-22T11:00:23;6.43;;;2.83;;
62736;SDS011;48787;46.494;-1.782;2022-07-22T11:02:49;6.45;;;2.38;;
62736;SDS011;48787;46.494;-1.782;2022-07-22T11:05:25;4.95;;;2.75;;
62736;SDS011;48787;46.494;-1.782;2022-07-22T11:07:51;6.30;;;2.75;;
62736;SDS011;48787;46.494;-1.782;2022-07-22T11:10:19;4.75;;;2.33;;
62736;SDS011;48787;46.494;-1.782;2022-07-22T11:12:46;4.32;;;2.63;;
62736;SDS011;48787;46.494;-1.782;2022-07-22T11:15:13;5.63;;;2.58;;
62736;SDS011;48787;46.494;-1.782;2022-07-22T11:17:39;4.15;;;2.38;;
62736;SDS011;48787;46.494;-1.782;2022-07-22T11:20:06;3.45;;;2.20;;
62736;SDS011;48787;46.494;-1.782;2022-07-22T11:22:33;5.82;;;2.70;;
62736;SDS011;48787;46.494;-1.782;2022-07-22T11:25:00;5.88;;;2.50;;
62736;SDS011;48787;46.494;-1.782;2022-07-22T11:27:27;3.50;;;2.05;;
62736;SDS011;48787;46.494;-1.782;2022-07-22T11:29:54;3.67;;;2.53;;
62736;SDS011;48787;46.494;-1.782;2022-07-22T11:32:21;4.57;;;2.75;;
62736;SDS011;48787;46.494;-1.782;2022-07-22T11:34:48;6.22;;;2.70;;
62736;SDS011;48787;46.494;-1.782;2022-07-22T11:37:14;3.90;;;2.35;;
62736;SDS011;48787;46.494;-1.782;2022-07-22T11:39:41;3.60;;;2.20;;
62736;SDS011;48787;46.494;-1.782;2022-07-22T11:42:07;6.00;;;2.50;;
62736;SDS011;48787;46.494;-1.782;2022-07-22T11:44:34;3.95;;;2.85;;
62736;SDS011;48787;46.494;-1.782;2022-07-22T11:47:01;5.63;;;2.13;;
62736;SDS011;48787;46.494;-1.782;2022-07-22T11:49:28;3.45;;;2.35;;
62736;SDS011;48787;46.494;-1.782;2022-07-22T11:51:55;4.78;;;2.38;;
62736;SDS011;48787;46.494;-1.782;2022-07-22T11:54:21;4.72;;;2.30;;
62736;SDS011;48787;46.494;-1.782;2022-07-22T11:56:47;3.42;;;2.15;;
62736;SDS011;48787;46.494;-1.782;2022-07-22T11:59:16;3.67;;;2.40;;
62736;SDS011;48787;46.494;-1.782;2022-07-22T12:01:44;4.28;;;2.20;;
62736;SDS011;48787;46.494;-1.782;2022-07-22T12:04:12;4.38;;;2.30;;
62736;SDS011;48787;46.494;-1.782;2022-07-22T12:06:39;3.80;;;2.15;;
62736;SDS011;48787;46.494;-1.782;2022-07-22T12:09:09;3.08;;;2.20;;
62736;SDS011;48787;46.494;-1.782;2022-07-22T12:11:37;3.33;;;2.25;;
62736;SDS011;48787;46.494;-1.782;2022-07-22T12:14:04;4.43;;;2.20;;
62736;SDS011;48787;46.494;-1.782;2022-07-22T12:16:31;3.97;;;1.90;;
62736;SDS011;48787;46.494;-1.782;2022-07-22T12:19:00;2.45;;;2.00;;
62736;SDS011;48787;46.494;-1.782;2022-07-22T12:21:29;5.15;;;2.53;;
62736;SDS011;48787;46.494;-1.782;2022-07-22T12:23:56;4.28;;;2.55;;
62736;SDS011;48787;46.494;-1.782;2022-07-22T12:29:42;6.03;;;2.22;;
62736;SDS011;48787;46.494;-1.782;2022-07-22T12:32:05;3.13;;;1.90;;
62736;SDS011;48787;46.494;-1.782;2022-07-22T12:34:32;2.47;;;1.80;;
62736;SDS011;48787;46.494;-1.782;2022-07-22T12:37:00;4.90;;;2.00;;
62736;SDS011;48787;46.494;-1.782;2022-07-22T12:39:27;2.35;;;1.92;;
62736;SDS011;48787;46.494;-1.782;2022-07-22T12:41:54;2.42;;;1.88;;
62736;SDS011;48787;46.494;-1.782;2022-07-22T12:44:21;2.53;;;1.70;;
62736;SDS011;48787;46.494;-1.782;2022-07-22T12:46:48;2.38;;;2.08;;
62736;SDS011;48787;46.494;-1.782;2022-07-22T12:49:16;4.25;;;2.10;;
62736;SDS011;48787;46.494;-1.782;2022-07-22T12:51:42;3.20;;;2.00;;
62736;SDS011;48787;46.494;-1.782;2022-07-22T12:54:28;4.03;;;2.17;;
62736;SDS011;48787;46.494;-1.782;2022-07-22T12:56:54;4.35;;;2.13;;
62736;SDS011;48787;46.494;-1.782;2022-07-22T12:59:20;2.72;;;2.10;;
62736;SDS011;48787;46.494;-1.782;2022-07-22T13:01:47;2.97;;;1.80;;
62736;SDS011;48787;46.494;-1.782;2022-07-22T13:04:14;2.42;;;1.75;;
62736;SDS011;48787;46.494;-1.782;2022-07-22T13:06:40;3.60;;;1.80;;
62736;SDS011;48787;46.494;-1.782;2022-07-22T13:09:06;2.03;;;1.60;;
62736;SDS011;48787;46.494;-1.782;2022-07-22T13:11:33;2.70;;;1.83;;
62736;SDS011;48787;46.494;-1.782;2022-07-22T13:14:04;3.33;;;1.65;;
62736;SDS011;48787;46.494;-1.782;2022-07-22T13:16:30;2.35;;;1.75;;
62736;SDS011;48787;46.494;-1.782;2022-07-22T13:18:56;3.65;;;2.00;;
62736;SDS011;48787;46.494;-1.782;2022-07-22T13:21:22;2.08;;;1.77;;
62736;SDS011;48787;46.494;-1.782;2022-07-22T13:23:49;3.97;;;1.95;;
62736;SDS011;48787;46.494;-1.782;2022-07-22T13:26:15;2.45;;;1.95;;
62736;SDS011;48787;46.494;-1.782;2022-07-22T13:28:41;1.90;;;1.75;;
62736;SDS011;48787;46.494;-1.782;2022-07-22T13:31:08;2.95;;;1.70;;
62736;SDS011;48787;46.494;-1.782;2022-07-22T13:33:34;2.05;;;1.80;;
62736;SDS011;48787;46.494;-1.782;2022-07-22T13:36:00;2.78;;;1.67;;
62736;SDS011;48787;46.494;-1.782;2022-07-22T13:38:26;2.20;;;1.80;;
62736;SDS011;48787;46.494;-1.782;2022-07-22T13:40:52;3.03;;;1.80;;
62736;SDS011;48787;46.494;-1.782;2022-07-22T13:43:22;2.63;;;1.70;;
62736;SDS011;48787;46.494;-1.782;2022-07-22T13:45:49;2.00;;;1.70;;
62736;SDS011;48787;46.494;-1.782;2022-07-22T13:48:15;2.15;;;1.70;;
62736;SDS011;48787;46.494;-1.782;2022-07-22T13:50:45;1.88;;;1.50;;
62736;SDS011;48787;46.494;-1.782;2022-07-22T13:53:11;2.30;;;2.10;;
62736;SDS011;48787;46.494;-1.782;2022-07-22T13:55:38;3.47;;;2.15;;
62736;SDS011;48787;46.494;-1.782;2022-07-22T13:58:04;5.22;;;2.22;;
62736;SDS011;48787;46.494;-1.782;2022-07-22T14:00:30;2.30;;;1.70;;
62736;SDS011;48787;46.494;-1.782;2022-07-22T14:02:56;1.77;;;1.52;;
62736;SDS011;48787;46.494;-1.782;2022-07-22T14:05:22;2.78;;;1.75;;
62736;SDS011;48787;46.494;-1.782;2022-07-22T14:07:49;2.47;;;1.73;;
62736;SDS011;48787;46.494;-1.782;2022-07-22T14:10:15;2.28;;;1.73;;
62736;SDS011;48787;46.494;-1.782;2022-07-22T14:12:41;2.17;;;1.98;;
62736;SDS011;48787;46.494;-1.782;2022-07-22T14:15:08;2.33;;;1.83;;
62736;SDS011;48787;46.494;-1.782;2022-07-22T14:17:36;4.03;;;1.85;;
62736;SDS011;48787;46.494;-1.782;2022-07-22T14:20:03;3.17;;;1.88;;
62736;SDS011;48787;46.494;-1.782;2022-07-22T14:22:32;4.20;;;1.70;;
62736;SDS011;48787;46.494;-1.782;2022-07-22T14:24:58;2.17;;;1.70;;
62736;SDS011;48787;46.494;-1.782;2022-07-22T14:27:24;2.53;;;1.60;;
62736;SDS011;48787;46.494;-1.782;2022-07-22T14:29:50;1.70;;;1.60;;
62736;SDS011;48787;46.494;-1.782;2022-07-22T14:32:16;2.20;;;1.60;;
62736;SDS011;48787;46.494;-1.782;2022-07-22T14:34:42;1.98;;;1.80;;
62736;SDS011;48787;46.494;-1.782;2022-07-22T14:37:08;1.73;;;1.63;;
62736;SDS011;48787;46.494;-1.782;2022-07-22T14:39:34;1.90;;;1.70;;
62736;SDS011;48787;46.494;-1.782;2022-07-22T14:42:00;2.60;;;1.90;;
62736;SDS011;48787;46.494;-1.782;2022-07-22T14:44:26;2.78;;;1.70;;
62736;SDS011;48787;46.494;-1.782;2022-07-22T14:46:52;3.85;;;1.85;;
62736;SDS011;48787;46.494;-1.782;2022-07-22T14:49:18;3.67;;;1.80;;
62736;SDS011;48787;46.494;-1.782;2022-07-22T14:51:44;2.22;;;1.55;;